Welcome to Northern Hawkes Bay. New Zealand.
PWS Header
      nz Flag



Hit Counter


W3C Valid W3C Valid logo


    Wairoa

Select any of the Stations below to visit their websites.










Historic Data from Weather Underground
Select the location of interest below. Wairoa is the default. Please have patience, this Data is slow to load in.
Northern Hawkes Bay Historical Data
Daily Summary for September 24, 2017 Units:  Metric    English   Both
« Previous Day
Next Day »
Daily Weekly Monthly Yearly Custom
  High: Low: Average:
Temperature: 23.3 °C 6.8 °C 14.5 °C
Dew Point: 13.2 °C 6.5 °C 10.1 °C
Humidity: 99% 47% 78%
Wind Speed: 11.1km/h 0.0km/h 4.3km/h
Wind Gust: 17.2km/h - -
Wind- - WSW
Pressure: 1015.8 hPa 1012.4 hPa -
Precipitation: 0.0 mm    
Historical Graphs
 
 
Tabular Data for September 24, 2017
Time Temperature Dew Point Pressure Wind Wind Speed Wind Gust Humidity Rainfall Rate (Hourly) solar
00:03 9.5 °C 9.3 °C 1013.8 hPa Calm   6.1 km/h 99% 0.0 mm 0 W/m2
00:08 9.4 °C 9.3 °C 1013.8 hPa Calm   6.1 km/h 99% 0.0 mm 0 W/m2
00:13 9.2 °C 9.1 °C 1014.1 hPa WNW 1.1 km/h 5.0 km/h 99% 0.0 mm 0 W/m2
00:18 9.2 °C 9.1 °C 1014.1 hPa WNW 2.6 km/h 3.5 km/h 99% 0.0 mm 0 W/m2
00:23 9.2 °C 9.1 °C 1014.1 hPa NW 2.6 km/h 3.5 km/h 99% 0.0 mm 0 W/m2
00:28 9.0 °C 8.8 °C 1014.4 hPa NW 2.6 km/h 5.0 km/h 99% 0.0 mm 0 W/m2
00:33 9.0 °C 8.8 °C 1014.4 hPa NW 3.5 km/h 5.0 km/h 99% 0.0 mm 0 W/m2
00:38 8.9 °C 8.8 °C 1014.1 hPa NW 3.5 km/h 6.1 km/h 99% 0.0 mm 0 W/m2
00:43 8.8 °C 8.7 °C 1014.4 hPa NNW 3.5 km/h 6.1 km/h 99% 0.0 mm 0 W/m2
00:48 8.8 °C 8.7 °C 1014.1 hPa NNW 5.0 km/h 7.2 km/h 99% 0.0 mm 0 W/m2
00:53 8.8 °C 8.7 °C 1014.4 hPa NNW 5.0 km/h 7.2 km/h 99% 0.0 mm 0 W/m2
00:58 8.8 °C 8.7 °C 1014.1 hPa North 3.5 km/h 7.2 km/h 99% 0.0 mm 0 W/m2
01:03 8.7 °C 8.6 °C 1014.4 hPa North 1.1 km/h 6.1 km/h 99% 0.0 mm 0 W/m2
01:08 8.6 °C 8.4 °C 1014.4 hPa NNW 5.0 km/h 7.2 km/h 99% 0.0 mm 0 W/m2
01:13 8.7 °C 8.6 °C 1014.4 hPa NNW 2.6 km/h 7.2 km/h 99% 0.0 mm 0 W/m2
01:18 8.7 °C 8.6 °C 1014.1 hPa NNW 2.6 km/h 7.2 km/h 99% 0.0 mm 0 W/m2
01:23 8.6 °C 8.4 °C 1014.1 hPa NNW 2.6 km/h 6.1 km/h 99% 0.0 mm 0 W/m2
01:28 8.5 °C 8.3 °C 1014.1 hPa NNW 2.6 km/h 6.1 km/h 99% 0.0 mm 0 W/m2
01:33 8.5 °C 8.3 °C 1014.1 hPa NNW 3.5 km/h 6.1 km/h 99% 0.0 mm 0 W/m2
01:38 8.5 °C 8.3 °C 1014.1 hPa NNW 5.0 km/h 6.1 km/h 99% 0.0 mm 0 W/m2
01:43 8.5 °C 8.3 °C 1013.8 hPa NNW 2.6 km/h 6.1 km/h 99% 0.0 mm 0 W/m2
01:48 8.5 °C 8.3 °C 1014.1 hPa NW 3.5 km/h 6.1 km/h 99% 0.0 mm 0 W/m2
01:53 8.4 °C 8.3 °C 1014.1 hPa NNW 2.6 km/h 6.1 km/h 99% 0.0 mm 0 W/m2
01:58 8.3 °C 8.2 °C 1014.1 hPa NNW 3.5 km/h 6.1 km/h 99% 0.0 mm 0 W/m2
03:03 8.3 °C 8.2 °C 1014.1 hPa NW 2.6 km/h 6.1 km/h 99% 0.0 mm 0 W/m2
03:08 8.2 °C 8.1 °C 1014.1 hPa NNW 5.0 km/h 7.2 km/h 99% 0.0 mm 0 W/m2
03:13 8.2 °C 8.1 °C 1013.8 hPa NNW 3.5 km/h 7.2 km/h 99% 0.0 mm 0 W/m2
03:18 8.1 °C 7.9 °C 1014.1 hPa NNW 5.0 km/h 7.2 km/h 99% 0.0 mm 0 W/m2
03:23 8.1 °C 7.9 °C 1014.1 hPa NNW 5.0 km/h 8.7 km/h 99% 0.0 mm 0 W/m2
03:28 8.0 °C 7.8 °C 1014.1 hPa NNW 5.0 km/h 8.7 km/h 99% 0.0 mm 0 W/m2
03:33 8.0 °C 7.8 °C 1014.1 hPa NNW 5.0 km/h 8.7 km/h 99% 0.0 mm 0 W/m2
03:38 8.0 °C 7.8 °C 1014.1 hPa NNW 5.0 km/h 8.7 km/h 99% 0.0 mm 0 W/m2
03:43 8.0 °C 7.8 °C 1014.1 hPa NNW 6.1 km/h 8.7 km/h 99% 0.0 mm 0 W/m2
03:48 8.0 °C 7.8 °C 1014.1 hPa NNW 6.1 km/h 9.7 km/h 99% 0.0 mm 0 W/m2
03:50 8.0 °C 7.8 °C 1014.1 hPa NNW 6.1 km/h 9.7 km/h 99% 0.0 mm 0 W/m2
03:55 7.9 °C 7.4 °C 1013.8 hPa NW 3.5 km/h 9.7 km/h 97% 0.0 mm 0 W/m2
04:00 7.9 °C 7.4 °C 1014.1 hPa NNW 5.0 km/h 7.2 km/h 97% 0.0 mm 0 W/m2
04:05 7.9 °C 7.4 °C 1014.1 hPa NNW 3.5 km/h 6.1 km/h 97% 0.0 mm 0 W/m2
04:22 7.7 °C 7.3 °C 1013.8 hPa NW 3.5 km/h 6.1 km/h 97% 0.0 mm 0 W/m2
04:27 7.7 °C 7.3 °C 1013.8 hPa NW 3.5 km/h 6.1 km/h 97% 0.0 mm 0 W/m2
04:32 7.7 °C 7.3 °C 1013.8 hPa NW 3.5 km/h 7.2 km/h 97% 0.0 mm 0 W/m2
04:37 7.6 °C 7.2 °C 1013.8 hPa NW 3.5 km/h 7.2 km/h 97% 0.0 mm 0 W/m2
04:42 7.5 °C 7.1 °C 1013.8 hPa NW 5.0 km/h 8.7 km/h 97% 0.0 mm 0 W/m2
04:47 7.5 °C 7.1 °C 1014.1 hPa NW 3.5 km/h 8.7 km/h 97% 0.0 mm 0 W/m2
04:52 7.4 °C 6.9 °C 1013.8 hPa NW 6.1 km/h 8.7 km/h 97% 0.0 mm 0 W/m2
04:57 7.5 °C 7.1 °C 1013.8 hPa NW 5.0 km/h 8.7 km/h 97% 0.0 mm 0 W/m2
05:02 7.5 °C 7.1 °C 1013.8 hPa NW 5.0 km/h 8.7 km/h 97% 0.0 mm 0 W/m2
05:07 7.5 °C 7.1 °C 1014.1 hPa Calm   8.7 km/h 97% 0.0 mm 0 W/m2
05:12 7.3 °C 6.8 °C 1014.1 hPa West 2.6 km/h 6.1 km/h 97% 0.0 mm 0 W/m2
05:17 7.2 °C 6.8 °C 1014.1 hPa Calm   3.5 km/h 97% 0.0 mm 0 W/m2
05:22 7.2 °C 6.8 °C 1014.1 hPa Calm   3.5 km/h 97% 0.0 mm 0 W/m2
05:27 7.3 °C 6.8 °C 1014.1 hPa North 2.6 km/h 3.5 km/h 97% 0.0 mm 0 W/m2
05:32 7.3 °C 6.8 °C 1014.1 hPa NNW 3.5 km/h 6.1 km/h 97% 0.0 mm 0 W/m2
05:37 7.2 °C 6.8 °C 1014.1 hPa North 3.5 km/h 6.1 km/h 97% 0.0 mm 0 W/m2
05:42 7.3 °C 6.8 °C 1014.1 hPa North 3.5 km/h 9.7 km/h 97% 0.0 mm 0 W/m2
05:47 7.5 °C 7.1 °C 1014.1 hPa North 5.0 km/h 9.7 km/h 97% 0.0 mm 0 W/m2
05:52 7.3 °C 6.8 °C 1014.1 hPa NNW 2.6 km/h 7.2 km/h 97% 0.0 mm 0 W/m2
05:57 7.2 °C 6.8 °C 1014.1 hPa NNW 3.5 km/h 8.7 km/h 97% 0.0 mm 0 W/m2
06:02 7.2 °C 6.8 °C 1013.8 hPa North 5.0 km/h 8.7 km/h 97% 0.0 mm 0 W/m2
06:07 7.3 °C 6.8 °C 1013.8 hPa North 6.1 km/h 9.7 km/h 97% 0.0 mm 0 W/m2
06:12 7.5 °C 7.1 °C 1014.1 hPa North 3.5 km/h 11.1 km/h 97% 0.0 mm 0 W/m2
06:17 7.3 °C 6.8 °C 1014.1 hPa NW 5.0 km/h 11.1 km/h 97% 0.0 mm 0 W/m2
06:22 7.0 °C 6.6 °C 1014.1 hPa WNW 5.0 km/h 7.2 km/h 97% 0.0 mm 0 W/m2
06:27 7.0 °C 6.6 °C 1014.1 hPa NW 5.0 km/h 7.2 km/h 97% 0.0 mm 0 W/m2
06:32 6.9 °C 6.6 °C 1014.1 hPa NW 5.0 km/h 8.7 km/h 98% 0.0 mm 0 W/m2
06:37 6.8 °C 6.5 °C 1014.1 hPa NW 5.0 km/h 9.7 km/h 98% 0.0 mm 0 W/m2
06:42 6.8 °C 6.5 °C 1014.4 hPa NW 6.1 km/h 9.7 km/h 98% 0.0 mm 0 W/m2
06:47 6.9 °C 6.6 °C 1014.4 hPa NNW 3.5 km/h 9.7 km/h 98% 0.0 mm 0 W/m2
06:52 7.0 °C 6.6 °C 1014.4 hPa NNW 6.1 km/h 9.7 km/h 97% 0.0 mm 0 W/m2
06:57 7.0 °C 6.6 °C 1014.4 hPa NNW 5.0 km/h 8.7 km/h 97% 0.0 mm 0 W/m2
07:02 7.0 °C 6.6 °C 1014.4 hPa NNW 7.2 km/h 8.7 km/h 97% 0.0 mm 2 W/m2
07:07 7.1 °C 6.7 °C 1014.4 hPa North 8.7 km/h 11.1 km/h 97% 0.0 mm 5 W/m2
07:12 7.2 °C 6.8 °C 1014.4 hPa NNW 6.1 km/h 13.4 km/h 97% 0.0 mm 8 W/m2
07:17 7.1 °C 6.7 °C 1014.4 hPa NNW 6.1 km/h 14.8 km/h 97% 0.0 mm 12 W/m2
07:22 7.0 °C 6.6 °C 1014.4 hPa North 8.7 km/h 14.8 km/h 97% 0.0 mm 17 W/m2
07:27 7.2 °C 6.8 °C 1014.4 hPa North 7.2 km/h 12.2 km/h 97% 0.0 mm 55 W/m2
07:32 7.4 °C 6.9 °C 1014.8 hPa North 7.2 km/h 12.2 km/h 97% 0.0 mm 69 W/m2
07:37 7.6 °C 7.2 °C 1014.4 hPa NNW 7.2 km/h 13.4 km/h 97% 0.0 mm 84 W/m2
07:42 7.7 °C 7.3 °C 1014.8 hPa North 8.7 km/h 13.4 km/h 97% 0.0 mm 97 W/m2
07:47 7.8 °C 7.3 °C 1014.8 hPa North 5.0 km/h 13.4 km/h 97% 0.0 mm 110 W/m2
07:52 8.1 °C 7.9 °C 1014.8 hPa NNW 7.2 km/h 12.2 km/h 99% 0.0 mm 122 W/m2
07:57 8.3 °C 8.2 °C 1014.8 hPa NNW 8.7 km/h 12.2 km/h 99% 0.0 mm 135 W/m2
08:02 8.4 °C 8.3 °C 1014.8 hPa NNW 6.1 km/h 13.4 km/h 99% 0.0 mm 148 W/m2
08:07 8.7 °C 8.6 °C 1014.8 hPa North 6.1 km/h 13.4 km/h 99% 0.0 mm 161 W/m2
08:12 9.2 °C 9.1 °C 1015.1 hPa NNW 7.2 km/h 12.2 km/h 99% 0.0 mm 170 W/m2
08:17 9.4 °C 9.3 °C 1015.1 hPa NNW 5.0 km/h 12.2 km/h 99% 0.0 mm 179 W/m2
08:22 9.7 °C 9.6 °C 1015.1 hPa North 8.7 km/h 11.1 km/h 99% 0.0 mm 187 W/m2
08:27 9.9 °C 9.8 °C 1015.5 hPa NNW 7.2 km/h 12.2 km/h 99% 0.0 mm 196 W/m2
08:32 10.2 °C 9.6 °C 1015.5 hPa North 5.0 km/h 12.2 km/h 96% 0.0 mm 203 W/m2
08:37 10.4 °C 9.5 °C 1015.5 hPa North 11.1 km/h 14.8 km/h 94% 0.0 mm 206 W/m2
08:42 10.6 °C 9.3 °C 1015.5 hPa NNW 9.7 km/h 14.8 km/h 92% 0.0 mm 211 W/m2
08:47 10.9 °C 9.5 °C 1015.5 hPa NNW 8.7 km/h 13.4 km/h 91% 0.0 mm 218 W/m2
08:52 11.5 °C 9.6 °C 1015.5 hPa NNW 7.2 km/h 13.4 km/h 88% 0.0 mm 223 W/m2
08:57 11.8 °C 9.6 °C 1015.5 hPa North 7.2 km/h 15.8 km/h 86% 0.0 mm 224 W/m2
09:02 12.0 °C 9.2 °C 1015.5 hPa North 6.1 km/h 15.8 km/h 83% 0.0 mm 227 W/m2
09:07 12.3 °C 9.3 °C 1015.5 hPa North 9.7 km/h 15.8 km/h 82% 0.0 mm 229 W/m2
09:12 12.2 °C 8.8 °C 1015.5 hPa North 11.1 km/h 17.2 km/h 80% 0.0 mm 232 W/m2
09:17 12.4 °C 9.2 °C 1015.5 hPa NNW 6.1 km/h 17.2 km/h 81% 0.0 mm 239 W/m2
09:22 12.6 °C 9.2 °C 1015.5 hPa NNW 7.2 km/h 15.8 km/h 80% 0.0 mm 246 W/m2
09:27 12.8 °C 9.3 °C 1015.5 hPa North 7.2 km/h 14.8 km/h 79% 0.0 mm 253 W/m2
09:32 13.1 °C 9.2 °C 1015.8 hPa North 7.2 km/h 15.8 km/h 77% 0.0 mm 261 W/m2
09:37 13.3 °C 9.2 °C 1015.8 hPa North 7.2 km/h 15.8 km/h 76% 0.0 mm 269 W/m2
09:42 13.5 °C 9.3 °C 1015.8 hPa North 5.0 km/h 15.8 km/h 76% 0.0 mm 279 W/m2
09:47 13.7 °C 9.6 °C 1015.8 hPa North 9.7 km/h 14.8 km/h 76% 0.0 mm 286 W/m2
09:52 14.1 °C 9.9 °C 1015.8 hPa NNW 9.7 km/h 14.8 km/h 76% 0.0 mm 295 W/m2
09:57 14.4 °C 10.2 °C 1015.8 hPa North 6.1 km/h 13.4 km/h 76% 0.0 mm 304 W/m2
10:02 14.7 °C 10.3 °C 1015.5 hPa North 11.1 km/h 17.2 km/h 75% 0.0 mm 311 W/m2
10:07 14.7 °C 10.1 °C 1015.8 hPa North 6.1 km/h 17.2 km/h 74% 0.0 mm 296 W/m2
10:12 15.3 °C 10.7 °C 1015.5 hPa North 9.7 km/h 17.2 km/h 74% 0.0 mm 329 W/m2
10:17 15.4 °C 10.6 °C 1015.8 hPa North 6.1 km/h 13.4 km/h 73% 0.0 mm 80 W/m2
10:22 15.7 °C 10.9 °C 1015.5 hPa NNE 9.7 km/h 14.8 km/h 73% 0.0 mm 344 W/m2
10:27 15.6 °C 10.6 °C 1015.8 hPa North 7.2 km/h 14.8 km/h 72% 0.0 mm 350 W/m2
10:32 15.9 °C 10.4 °C 1015.5 hPa North 5.0 km/h 14.8 km/h 70% 0.0 mm 83 W/m2
10:37 16.1 °C 10.4 °C 1015.5 hPa NNW 8.7 km/h 13.4 km/h 69% 0.0 mm 362 W/m2
10:42 16.5 °C 10.3 °C 1015.5 hPa North 7.2 km/h 13.4 km/h 67% 0.0 mm 369 W/m2
10:47 16.5 °C 10.3 °C 1015.5 hPa North 6.1 km/h 14.8 km/h 67% 0.0 mm 371 W/m2
10:52 17.0 °C 10.4 °C 1015.8 hPa North 7.2 km/h 14.8 km/h 65% 0.0 mm 372 W/m2
10:57 17.3 °C 10.4 °C 1015.5 hPa North 5.0 km/h 12.2 km/h 64% 0.0 mm 363 W/m2
11:02 17.7 °C 10.6 °C 1015.5 hPa North 5.0 km/h 11.1 km/h 63% 0.0 mm 312 W/m2
11:07 17.6 °C 10.2 °C 1015.8 hPa North 6.1 km/h 11.1 km/h 62% 0.0 mm 394 W/m2
11:12 18.0 °C 10.6 °C 1015.5 hPa NNW 8.7 km/h 13.4 km/h 62% 0.0 mm 408 W/m2
11:17 17.8 °C 10.2 °C 1015.5 hPa NNW 6.1 km/h 13.4 km/h 61% 0.0 mm 417 W/m2
11:22 18.1 °C 10.4 °C 1015.5 hPa North 6.1 km/h 13.4 km/h 61% 0.0 mm 433 W/m2
11:27 18.5 °C 10.3 °C 1015.5 hPa North 5.0 km/h 12.2 km/h 59% 0.0 mm 454 W/m2
11:32 18.9 °C 10.2 °C 1015.5 hPa NNW 1.1 km/h 9.7 km/h 57% 0.0 mm 471 W/m2
11:37 19.0 °C 9.8 °C 1015.5 hPa NNW 2.6 km/h 9.7 km/h 55% 0.0 mm 488 W/m2
11:42 19.5 °C 10.2 °C 1015.1 hPa North 2.6 km/h 9.7 km/h 55% 0.0 mm 488 W/m2
11:47 20.1 °C 10.5 °C 1015.1 hPa NNE 2.6 km/h 8.7 km/h 54% 0.0 mm 509 W/m2
11:52 20.0 °C 10.2 °C 1015.5 hPa NNW 2.6 km/h 8.7 km/h 53% 0.0 mm 516 W/m2
11:57 20.1 °C 10.2 °C 1015.1 hPa WNW 3.5 km/h 8.7 km/h 53% 0.0 mm 529 W/m2
12:02 20.2 °C 10.3 °C 1015.1 hPa WNW 5.0 km/h 7.2 km/h 53% 0.0 mm 538 W/m2
12:08 19.8 °C 10.2 °C 1015.1 hPa NNW 1.1 km/h 9.7 km/h 54% 0.0 mm 546 W/m2
12:13 20.0 °C 10.2 °C 1015.1 hPa NNW 1.1 km/h 9.7 km/h 53% 0.0 mm 553 W/m2
12:18 20.1 °C 10.2 °C 1015.1 hPa North 3.5 km/h 7.2 km/h 53% 0.0 mm 557 W/m2
12:23 20.2 °C 10.1 °C 1015.1 hPa WNW 1.1 km/h 7.2 km/h 52% 0.0 mm 563 W/m2
12:28 20.5 °C 10.6 °C 1014.8 hPa NW 8.7 km/h 11.1 km/h 53% 0.0 mm 571 W/m2
12:33 20.5 °C 10.6 °C 1014.8 hPa NNE 6.1 km/h 11.1 km/h 53% 0.0 mm 575 W/m2
12:38 20.6 °C 10.7 °C 1014.8 hPa North 7.2 km/h 11.1 km/h 53% 0.0 mm 581 W/m2
12:43 20.2 °C 10.3 °C 1014.8 hPa NNW 1.1 km/h 11.1 km/h 53% 0.0 mm 575 W/m2
12:48 20.6 °C 10.4 °C 1014.8 hPa NNE 2.6 km/h 11.1 km/h 52% 0.0 mm 579 W/m2
12:53 21.1 °C 10.9 °C 1014.4 hPa NE 7.2 km/h 12.2 km/h 52% 0.0 mm 588 W/m2
12:58 20.9 °C 10.7 °C 1014.8 hPa NE 6.1 km/h 12.2 km/h 52% 0.0 mm 588 W/m2
13:03 21.0 °C 10.8 °C 1014.8 hPa NE 3.5 km/h 12.2 km/h 52% 0.0 mm 592 W/m2
13:08 21.1 °C 10.3 °C 1014.1 hPa ENE 6.1 km/h 12.2 km/h 50% 0.0 mm 591 W/m2
13:13 21.1 °C 10.6 °C 1014.4 hPa ESE 6.1 km/h 12.2 km/h 51% 0.0 mm 586 W/m2
13:19 21.5 °C 10.7 °C 1014.4 hPa SE 3.5 km/h 9.7 km/h 50% 0.0 mm 595 W/m2
13:24 21.9 °C 11.0 °C 1014.4 hPa SE 3.5 km/h 8.7 km/h 50% 0.0 mm 601 W/m2
13:29 22.3 °C 11.7 °C 1014.4 hPa Calm   8.7 km/h 51% 0.0 mm 603 W/m2
13:34 22.5 °C 11.6 °C 1014.1 hPa SSE 7.2 km/h 9.7 km/h 50% 0.0 mm 600 W/m2
13:39 22.2 °C 11.6 °C 1014.1 hPa SSE 5.0 km/h 12.2 km/h 51% 0.0 mm 596 W/m2
13:44 21.7 °C 11.4 °C 1014.1 hPa SE 7.2 km/h 12.2 km/h 52% 0.0 mm 588 W/m2
13:49 21.7 °C 12.0 °C 1014.1 hPa SE 6.1 km/h 11.1 km/h 54% 0.0 mm 587 W/m2
13:54 22.1 °C 11.5 °C 1013.8 hPa SE 1.1 km/h 11.1 km/h 51% 0.0 mm 369 W/m2
13:59 22.1 °C 11.5 °C 1013.8 hPa SE 5.0 km/h 9.7 km/h 51% 0.0 mm 592 W/m2
14:04 21.9 °C 11.6 °C 1013.8 hPa SE 2.6 km/h 12.2 km/h 52% 0.0 mm 585 W/m2
14:10 21.8 °C 11.5 °C 1013.4 hPa SE 5.0 km/h 12.2 km/h 52% 0.0 mm 353 W/m2
14:15 21.9 °C 11.6 °C 1013.8 hPa SE 1.1 km/h 11.1 km/h 52% 0.0 mm 167 W/m2
14:20 22.2 °C 11.0 °C 1013.4 hPa SE 3.5 km/h 11.1 km/h 49% 0.0 mm 547 W/m2
14:25 22.8 °C 11.8 °C 1013.4 hPa SE 3.5 km/h 12.2 km/h 50% 0.0 mm 546 W/m2
14:42 22.9 °C 11.6 °C 1013.4 hPa SE 2.6 km/h 8.7 km/h 49% 0.0 mm 526 W/m2
14:47 22.8 °C 11.8 °C 1013.1 hPa SE 3.5 km/h 9.7 km/h 50% 0.0 mm 529 W/m2
14:52 22.7 °C 12.1 °C 1013.4 hPa ESE 3.5 km/h 9.7 km/h 51% 0.0 mm 389 W/m2
14:57 23.0 °C 11.4 °C 1013.1 hPa SE 1.1 km/h 11.1 km/h 48% 0.0 mm 245 W/m2
15:02 23.0 °C 11.4 °C 1013.1 hPa SSE 3.5 km/h 11.1 km/h 48% 0.0 mm 101 W/m2
15:07 23.0 °C 11.4 °C 1013.1 hPa SE 3.5 km/h 9.7 km/h 48% 0.0 mm 80 W/m2
15:12 22.8 °C 11.2 °C 1012.8 hPa SSE 3.5 km/h 9.7 km/h 48% 0.0 mm 81 W/m2
15:17 23.2 °C 11.9 °C 1012.8 hPa SSE 5.0 km/h 9.7 km/h 49% 0.0 mm 87 W/m2
15:22 23.3 °C 11.4 °C 1012.8 hPa SE 5.0 km/h 8.7 km/h 47% 0.0 mm 95 W/m2
15:27 23.1 °C 11.2 °C 1012.8 hPa SE 3.5 km/h 9.7 km/h 47% 0.0 mm 98 W/m2
15:32 23.1 °C 11.8 °C 1012.8 hPa SE 6.1 km/h 11.1 km/h 49% 0.0 mm 99 W/m2
15:37 23.0 °C 11.4 °C 1012.8 hPa SE 3.5 km/h 11.1 km/h 48% 0.0 mm 189 W/m2
15:42 23.0 °C 11.4 °C 1012.8 hPa SE 5.0 km/h 11.1 km/h 48% 0.0 mm 350 W/m2
15:47 23.3 °C 11.4 °C 1012.8 hPa ESE 5.0 km/h 8.7 km/h 47% 0.0 mm 414 W/m2
15:52 22.8 °C 11.8 °C 1012.8 hPa SE 6.1 km/h 9.7 km/h 50% 0.0 mm 408 W/m2
15:57 22.6 °C 11.9 °C 1012.4 hPa SSE 3.5 km/h 11.1 km/h 51% 0.0 mm 393 W/m2
16:02 22.6 °C 11.7 °C 1012.8 hPa SE 5.0 km/h 11.1 km/h 50% 0.0 mm 384 W/m2
16:08 22.7 °C 11.4 °C 1012.8 hPa SE 5.0 km/h 11.1 km/h 49% 0.0 mm 291 W/m2
16:17 22.6 °C 11.7 °C 1012.8 hPa SE 5.0 km/h 11.1 km/h 50% 0.0 mm 168 W/m2
16:22 21.9 °C 11.6 °C 1012.4 hPa SE 5.0 km/h 11.1 km/h 52% 0.0 mm 318 W/m2
16:25 21.5 °C 11.6 °C 1012.4 hPa SE 2.6 km/h 11.1 km/h 53% 0.0 mm 146 W/m2
16:29 21.0 °C 11.3 °C 1012.8 hPa SE 3.5 km/h 11.1 km/h 54% 0.0 mm 134 W/m2
16:34 20.3 °C 11.5 °C 1012.8 hPa SE 3.5 km/h 8.7 km/h 57% 0.0 mm 145 W/m2
16:38 20.0 °C 11.2 °C 1012.8 hPa SE 3.5 km/h 11.1 km/h 57% 0.0 mm 155 W/m2
16:43 19.7 °C 11.5 °C 1012.8 hPa SE 2.6 km/h 11.1 km/h 59% 0.0 mm 123 W/m2
16:48 19.3 °C 11.6 °C 1012.8 hPa SE 3.5 km/h 11.1 km/h 61% 0.0 mm 108 W/m2
16:53 19.2 °C 11.5 °C 1012.8 hPa ESE 5.0 km/h 11.1 km/h 61% 0.0 mm 111 W/m2
16:58 18.9 °C 11.0 °C 1012.8 hPa East 9.7 km/h 13.4 km/h 60% 0.0 mm 99 W/m2
17:03 18.8 °C 11.1 °C 1012.4 hPa East 8.7 km/h 13.4 km/h 61% 0.0 mm 107 W/m2
17:08 18.9 °C 11.7 °C 1012.8 hPa East 1.1 km/h 13.4 km/h 63% 0.0 mm 180 W/m2
17:13 19.6 °C 11.9 °C 1012.8 hPa ESE 3.5 km/h 8.7 km/h 61% 0.0 mm 106 W/m2
17:18 19.9 °C 11.9 °C 1012.8 hPa ESE 1.1 km/h 9.7 km/h 60% 0.0 mm 103 W/m2
17:23 19.8 °C 11.6 °C 1012.8 hPa ESE 2.6 km/h 9.7 km/h 59% 0.0 mm 83 W/m2
17:28 19.4 °C 11.4 °C 1012.8 hPa ESE 2.6 km/h 6.1 km/h 60% 0.0 mm 86 W/m2
17:33 19.5 °C 11.8 °C 1012.8 hPa ESE 2.6 km/h 6.1 km/h 61% 0.0 mm 76 W/m2
17:38 19.3 °C 11.3 °C 1012.8 hPa ESE 3.5 km/h 7.2 km/h 60% 0.0 mm 79 W/m2
17:43 18.9 °C 11.4 °C 1012.8 hPa ESE 1.1 km/h 7.2 km/h 62% 0.0 mm 73 W/m2
17:48 18.7 °C 11.3 °C 1012.8 hPa East 1.1 km/h 8.7 km/h 62% 0.0 mm 56 W/m2
17:53 18.6 °C 11.7 °C 1012.8 hPa ENE 2.6 km/h 8.7 km/h 64% 0.0 mm 47 W/m2
17:58 18.5 °C 11.6 °C 1012.8 hPa East 2.6 km/h 7.2 km/h 64% 0.0 mm 37 W/m2
18:03 18.4 °C 11.7 °C 1012.8 hPa Calm   6.1 km/h 65% 0.0 mm 35 W/m2
18:08 18.3 °C 11.6 °C 1012.8 hPa ESE 1.1 km/h 7.2 km/h 65% 0.0 mm 31 W/m2
18:13 18.2 °C 11.5 °C 1012.8 hPa SE 1.1 km/h 7.2 km/h 65% 0.0 mm 25 W/m2
18:18 18.1 °C 11.7 °C 1012.8 hPa Calm   6.1 km/h 66% 0.0 mm 23 W/m2
18:23 18.1 °C 11.9 °C 1012.8 hPa South 2.6 km/h 6.1 km/h 67% 0.0 mm 17 W/m2
18:28 17.9 °C 12.3 °C 1012.8 hPa Calm   3.5 km/h 70% 0.0 mm 18 W/m2
18:33 17.8 °C 12.5 °C 1013.1 hPa Calm   2.6 km/h 71% 0.0 mm 17 W/m2
18:38 17.8 °C 12.7 °C 1012.8 hPa Calm   2.6 km/h 72% 0.0 mm 10 W/m2
18:43 17.5 °C 12.8 °C 1013.1 hPa SW 3.5 km/h 6.1 km/h 74% 0.0 mm 6 W/m2
18:48 17.1 °C 13.1 °C 1013.1 hPa Calm   6.1 km/h 77% 0.0 mm 4 W/m2
18:53 17.0 °C 12.9 °C 1012.8 hPa Calm   5.0 km/h 77% 0.0 mm 4 W/m2
18:58 16.8 °C 12.9 °C 1013.1 hPa Calm   2.6 km/h 78% 0.0 mm 3 W/m2
19:14 16.7 °C 13.1 °C 1013.1 hPa Calm   1.1 km/h 79% 0.0 mm 0 W/m2
19:20 16.6 °C 12.9 °C 1012.8 hPa Calm   2.6 km/h 79% 0.0 mm 0 W/m2
19:25 16.4 °C 13.1 °C 1013.1 hPa Calm   2.6 km/h 81% 0.0 mm 0 W/m2
19:30 16.3 °C 13.1 °C 1013.1 hPa Calm   2.6 km/h 81% 0.0 mm 0 W/m2
19:35 16.3 °C 13.2 °C 1013.1 hPa Calm   1.1 km/h 82% 0.0 mm 0 W/m2
19:40 16.3 °C 13.2 °C 1013.1 hPa Calm   1.1 km/h 82% 0.0 mm 0 W/m2
19:45 16.2 °C 13.1 °C 1013.1 hPa Calm   1.1 km/h 82% 0.0 mm 0 W/m2
19:50 16.2 °C 13.1 °C 1013.1 hPa Calm     82% 0.0 mm 0 W/m2
19:55 16.1 °C 13.1 °C 1013.1 hPa Calm     82% 0.0 mm 0 W/m2
20:00 16.0 °C 12.9 °C 1013.4 hPa Calm   1.1 km/h 82% 0.0 mm 0 W/m2
20:05 16.1 °C 13.2 °C 1013.4 hPa NNW 3.5 km/h 5.0 km/h 83% 0.0 mm 0 W/m2
20:10 16.1 °C 13.2 °C 1013.4 hPa NNW 2.6 km/h 5.0 km/h 83% 0.0 mm 0 W/m2
20:15 16.0 °C 13.1 °C 1013.4 hPa NNW 3.5 km/h 7.2 km/h 83% 0.0 mm 0 W/m2
20:20 16.0 °C 13.1 °C 1013.8 hPa NNW 3.5 km/h 7.2 km/h 83% 0.0 mm 0 W/m2
20:25 15.9 °C 13.2 °C 1013.4 hPa Calm   7.2 km/h 84% 0.0 mm 0 W/m2
20:30 15.9 °C 13.0 °C 1013.8 hPa Calm   7.2 km/h 83% 0.0 mm 0 W/m2
20:35 15.9 °C 13.0 °C 1013.8 hPa Calm   1.1 km/h 83% 0.0 mm 0 W/m2
20:40 15.8 °C 12.9 °C 1013.8 hPa Calm   1.1 km/h 83% 0.0 mm 0 W/m2
20:45 15.7 °C 12.8 °C 1014.1 hPa Calm     83% 0.0 mm 0 W/m2
20:50 15.5 °C 12.8 °C 1014.1 hPa Calm     84% 0.0 mm 0 W/m2
20:55 15.4 °C 12.7 °C 1014.1 hPa Calm     84% 0.0 mm 0 W/m2
21:05 15.0 °C 12.3 °C 1014.4 hPa Calm     84% 0.0 mm 0 W/m2
21:10 15.0 °C 12.5 °C 1014.1 hPa Calm     85% 0.0 mm 0 W/m2
21:15 14.9 °C 12.6 °C 1014.4 hPa North 1.1 km/h 3.5 km/h 86% 0.0 mm 0 W/m2
21:20 14.7 °C 12.6 °C 1014.4 hPa North 1.1 km/h 3.5 km/h 87% 0.0 mm 0 W/m2
21:25 14.5 °C 12.4 °C 1014.4 hPa North 1.1 km/h 3.5 km/h 87% 0.0 mm 0 W/m2
21:30 14.3 °C 12.3 °C 1014.4 hPa North 2.6 km/h 6.1 km/h 88% 0.0 mm 0 W/m2
21:35 14.3 °C 12.3 °C 1014.4 hPa North 3.5 km/h 6.1 km/h 88% 0.0 mm 0 W/m2
21:40 14.4 °C 12.3 °C 1014.4 hPa North 2.6 km/h 6.1 km/h 87% 0.0 mm 0 W/m2
21:50 14.7 °C 12.2 °C 1014.4 hPa North 3.5 km/h 7.2 km/h 85% 0.0 mm 0 W/m2
21:55 14.9 °C 12.2 °C 1014.4 hPa North 5.0 km/h 8.7 km/h 84% 0.0 mm 0 W/m2
22:00 15.0 °C 11.9 °C 1014.4 hPa North 5.0 km/h 8.7 km/h 82% 0.0 mm 0 W/m2
22:05 15.1 °C 11.9 °C 1014.4 hPa NNW 5.0 km/h 9.7 km/h 81% 0.0 mm 0 W/m2
22:10 15.2 °C 11.8 °C 1014.4 hPa North 6.1 km/h 9.7 km/h 80% 0.0 mm 0 W/m2
22:15 15.1 °C 11.5 °C 1014.8 hPa NNW 6.1 km/h 8.7 km/h 79% 0.0 mm 0 W/m2
22:20 15.1 °C 11.5 °C 1014.4 hPa NNW 5.0 km/h 8.7 km/h 79% 0.0 mm 0 W/m2
22:25 15.0 °C 11.6 °C 1014.4 hPa North 5.0 km/h 9.7 km/h 80% 0.0 mm 0 W/m2
22:30 15.0 °C 11.6 °C 1014.4 hPa North 5.0 km/h 9.7 km/h 80% 0.0 mm 0 W/m2
22:35 14.9 °C 11.8 °C 1014.4 hPa NNE 6.1 km/h 9.7 km/h 82% 0.0 mm 0 W/m2
22:40 14.9 °C 11.8 °C 1014.8 hPa North 5.0 km/h 12.2 km/h 82% 0.0 mm 0 W/m2
22:45 14.9 °C 11.7 °C 1014.4 hPa North 7.2 km/h 12.2 km/h 81% 0.0 mm 0 W/m2
22:50 15.0 °C 11.6 °C 1014.8 hPa North 7.2 km/h 13.4 km/h 80% 0.0 mm 0 W/m2
22:55 15.1 °C 11.5 °C 1014.4 hPa North 6.1 km/h 13.4 km/h 79% 0.0 mm 0 W/m2
23:00 15.0 °C 11.4 °C 1014.4 hPa NNE 7.2 km/h 12.2 km/h 79% 0.0 mm 0 W/m2
23:05 14.9 °C 11.5 °C 1014.4 hPa North 6.1 km/h 13.4 km/h 80% 0.0 mm 0 W/m2
23:10 14.9 °C 11.5 °C 1014.4 hPa North 8.7 km/h 13.4 km/h 80% 0.0 mm 0 W/m2
23:15 14.8 °C 11.6 °C 1014.4 hPa North 8.7 km/h 13.4 km/h 81% 0.0 mm 0 W/m2
23:20 14.7 °C 11.5 °C 1014.4 hPa North 6.1 km/h 12.2 km/h 81% 0.0 mm 0 W/m2
23:25 14.6 °C 11.4 °C 1014.4 hPa North 6.1 km/h 12.2 km/h 81% 0.0 mm 0 W/m2
23:30 14.5 °C 11.4 °C 1014.4 hPa North 6.1 km/h 12.2 km/h 82% 0.0 mm 0 W/m2
23:35 14.3 °C 11.3 °C 1014.4 hPa North 5.0 km/h 9.7 km/h 82% 0.0 mm 0 W/m2
23:40 14.2 °C 11.3 °C 1014.4 hPa North 6.1 km/h 11.1 km/h 83% 0.0 mm 0 W/m2
23:45 14.1 °C 11.3 °C 1014.4 hPa NNW 6.1 km/h 11.1 km/h 83% 0.0 mm 0 W/m2
23:50 14.0 °C 11.2 °C 1014.4 hPa North 8.7 km/h 11.1 km/h 83% 0.0 mm 0 W/m2
23:55 13.9 °C 11.4 °C 1014.4 hPa NNW 5.0 km/h 11.1 km/h 85% 0.0 mm 0 W/m2
Northern Hawkes Bay. New Zealand Historic Data
Compliments of Weather Underground - 2.25 mb